Time;durP1;ratioP1;P1;durP2;ratioP2;P2;SDS_P1;SDS_P2;PMS_P1;PMS_P2;Temp;Humidity;BMP_temperature;BMP_pressure;BME280_temperature;BME280_humidity;BME280_pressure;Samples;Min_cycle;Max_cycle;Signal;HPM_P1;HPM_P2
2023/09/21 00:01:54;;;;;;;2.20;1.00;;;;;;;;;;20872205;28;20213;-81
2023/09/21 00:11:56;;;;;;;1.47;0.90;;;;;;;;;;20882099;28;20286;-81
2023/09/21 00:21:58;;;;;;;1.90;1.00;;;;;;;;;;20838193;28;20229;-80
2023/09/21 00:32:00;;;;;;;2.20;1.20;;;;;;;;;;20823244;28;20222;-80
2023/09/21 00:42:03;;;;;;;1.73;0.90;;;;;;;;;;20851332;28;20726;-80
2023/09/21 00:52:05;;;;;;;1.37;0.97;;;;;;;;;;20833226;28;20275;-80
2023/09/21 01:02:07;;;;;;;4.10;1.00;;;;;;;;;;20843048;28;20213;-80
2023/09/21 01:12:10;;;;;;;1.30;0.83;;;;;;;;;;20857370;28;20246;-80
2023/09/21 01:22:12;;;;;;;1.63;0.90;;;;;;;;;;20858403;28;20209;-80
2023/09/21 01:32:14;;;;;;;1.67;1.10;;;;;;;;;;20856205;28;20251;-80
2023/09/21 01:42:16;;;;;;;1.43;1.00;;;;;;;;;;20818726;28;20224;-80
2023/09/21 01:52:18;;;;;;;1.53;0.90;;;;;;;;;;20838511;28;20303;-80
2023/09/21 02:02:20;;;;;;;1.70;1.00;;;;;;;;;;20864449;28;20228;-80
2023/09/21 02:12:24;;;;;;;1.60;0.90;;;18.60;99.90;;;;;;20848449;28;20281;-80
2023/09/21 02:22:26;;;;;;;1.20;0.80;;;;;;;;;;20857582;28;20250;-80
2023/09/21 02:32:28;;;;;;;1.30;0.90;;;;;;;;;;20844073;28;20223;-80
2023/09/21 02:42:30;;;;;;;1.50;0.87;;;;;;;;;;20850799;22;20274;-67
2023/09/21 02:52:32;;;;;;;2.23;0.80;;;;;;;;;;20804885;28;20726;-67
2023/09/21 03:02:34;;;;;;;1.43;0.80;;;;;;;;;;20776190;28;20232;-66
2023/09/21 03:12:39;;;;;;;3.57;1.00;;;18.70;99.90;;;;;;20804179;28;20243;-66
2023/09/21 03:22:41;;;;;;;1.40;0.80;;;;;;;;;;20755911;28;20602;-67
2023/09/21 03:32:44;;;;;;;1.53;0.90;;;;;;;;;;20790471;28;20777;-67
2023/09/21 03:42:46;;;;;;;2.50;1.17;;;;;;;;;;20790998;28;20286;-65
2023/09/21 03:52:48;;;;;;;1.80;0.90;;;;;;;;;;20794160;28;20281;-68
2023/09/21 04:02:51;;;;;;;2.90;0.70;;;;;;;;;;20784385;28;20220;-67
2023/09/21 04:12:57;;;;;;;1.27;0.87;;;18.60;99.90;;;;;;20803745;28;20227;-65
2023/09/21 04:23:00;;;;;;;1.70;0.93;;;;;;;;;;20800655;28;20742;-67
2023/09/21 04:33:02;;;;;;;1.10;0.70;;;;;;;;;;20765597;28;20231;-66
2023/09/21 04:43:05;;;;;;;1.70;0.83;;;;;;;;;;20809962;28;20223;-66
2023/09/21 04:53:07;;;;;;;1.43;0.90;;;;;;;;;;20797741;28;20782;-67
2023/09/21 05:03:10;;;;;;;8.23;1.90;;;;;;;;;;20807485;28;20219;-66
2023/09/21 05:13:18;;;;;;;2.43;0.90;;;;;;;;;;20801406;28;20219;-68
2023/09/21 05:23:27;;;;;;;1.60;1.00;;;;;;;;;;20792264;28;20254;-68
2023/09/21 05:33:31;;;;;;;2.10;1.10;;;;;;;;;;20798991;28;20253;-69
2023/09/21 05:43:33;;;;;;;1.93;0.80;;;;;;;;;;20822487;28;20253;-69
2023/09/21 05:53:34;;;;;;;1.17;0.70;;;;;;;;;;20807527;28;20603;-68
2023/09/21 06:03:36;;;;;;;1.40;0.90;;;;;;;;;;20779199;28;20219;-69
2023/09/21 06:13:38;;;;;;;2.53;0.80;;;;;;;;;;20795079;28;20604;-66
2023/09/21 06:23:41;;;;;;;2.03;1.03;;;;;;;;;;20794070;28;20219;-66
2023/09/21 06:33:43;;;;;;;2.43;0.90;;;;;;;;;;20793407;28;20224;-67
2023/09/21 06:43:45;;;;;;;1.80;0.80;;;;;;;;;;20808847;28;20239;-66
2023/09/21 06:53:48;;;;;;;0.90;0.70;;;;;;;;;;20791968;28;20696;-66
2023/09/21 07:03:51;;;;;;;1.97;1.10;;;;;;;;;;20808036;28;20211;-66
2023/09/21 07:13:53;;;;;;;1.47;1.00;;;;;;;;;;20807451;28;20696;-66
2023/09/21 07:23:54;;;;;;;2.83;0.90;;;;;;;;;;20781890;28;20687;-67
2023/09/21 07:33:58;;;;;;;1.60;0.90;;;;;;;;;;20781884;28;20285;-66
2023/09/21 07:44:00;;;;;;;2.30;0.90;;;;;;;;;;20816639;28;20830;-66
2023/09/21 07:54:02;;;;;;;2.53;1.00;;;;;;;;;;20808897;28;20231;-67
2023/09/21 08:04:04;;;;;;;2.37;1.03;;;;;;;;;;20780724;28;20284;-67
2023/09/21 08:14:06;;;;;;;2.03;1.03;;;;;;;;;;20787518;28;20661;-67
2023/09/21 08:24:09;;;;;;;1.70;0.97;;;;;;;;;;20823141;28;20688;-67
2023/09/21 08:34:11;;;;;;;1.10;0.83;;;;;;;;;;20828386;28;20580;-67
2023/09/21 08:44:13;;;;;;;2.30;1.00;;;;;;;;;;20790066;28;20223;-68
2023/09/21 08:54:16;;;;;;;1.50;0.80;;;;;;;;;;20765595;28;20273;-68
2023/09/21 09:04:19;;;;;;;0.90;0.60;;;18.40;99.90;;;;;;20783582;28;20221;-69
2023/09/21 09:14:21;;;;;;;2.50;1.00;;;;;;;;;;20788416;28;20227;-69
2023/09/21 09:24:29;;;;;;;2.53;1.00;;;;;;;;;;20830542;28;20216;-67
2023/09/21 09:34:31;;;;;;;0.73;0.60;;;;;;;;;;20807347;28;20596;-68
2023/09/21 09:44:34;;;;;;;1.27;0.80;;;;;;;;;;20792370;28;20233;-68
2023/09/21 09:54:37;;;;;;;1.03;0.60;;;;;;;;;;20782248;28;20217;-69
2023/09/21 10:04:40;;;;;;;1.00;0.60;;;;;;;;;;20814208;28;20295;-69
2023/09/21 10:14:43;;;;;;;0.80;0.50;;;;;;;;;;20798051;28;20229;-69
2023/09/21 10:24:50;;;;;;;0.80;0.53;;;20.90;99.90;;;;;;20809445;28;20259;-69
2023/09/21 10:34:52;;;;;;;5.53;0.90;;;;;;;;;;20810892;28;20583;-69
2023/09/21 10:44:58;;;;;;;1.50;0.83;;;;;;;;;;20790801;28;20225;-69
2023/09/21 10:55:00;;;;;;;1.10;0.70;;;;;;;;;;20810349;28;20230;-69
2023/09/21 11:05:02;;;;;;;0.90;0.70;;;21.90;99.90;;;;;;20793468;28;20229;-70
2023/09/21 11:15:06;;;;;;;0.80;0.60;;;;;;;;;;20771727;28;20229;-69
2023/09/21 11:25:09;;;;;;;1.10;0.60;;;;;;;;;;20798365;28;20211;-69
2023/09/21 11:35:11;;;;;;;1.40;0.70;;;;;;;;;;20790948;28;20275;-69
2023/09/21 11:45:15;;;;;;;1.55;0.73;;;;;;;;;;20806054;28;20220;-68
2023/09/21 11:55:18;;;;;;;1.10;0.70;;;;;;;;;;20805962;28;20219;-69
2023/09/21 12:05:20;;;;;;;1.45;0.75;;;;;;;;;;20822072;28;20216;-69
2023/09/21 12:15:22;;;;;;;1.50;0.70;;;;;;;;;;20780431;28;20222;-69
2023/09/21 12:25:24;;;;;;;1.00;0.50;;;;;;;;;;20810174;28;20303;-69
2023/09/21 12:35:26;;;;;;;3.67;0.50;;;;;;;;;;20816207;28;20604;-69
2023/09/21 12:45:28;;;;;;;0.60;0.40;;;;;;;;;;20789031;28;20849;-68
2023/09/21 12:55:30;;;;;;;1.13;0.40;;;;;;;;;;20818634;28;20642;-69
2023/09/21 13:05:32;;;;;;;0.70;0.40;;;;;;;;;;20800180;28;20293;-68
2023/09/21 13:15:35;;;;;;;0.52;0.30;;;;;;;;;;20797297;28;20227;-68
2023/09/21 13:25:37;;;;;;;0.43;0.40;;;;;;;;;;20804356;28;20219;-69
2023/09/21 13:35:39;;;;;;;1.27;0.40;;;;;;;;;;20782166;28;20293;-69
2023/09/21 13:45:41;;;;;;;1.25;0.43;;;;;;;;;;20789733;28;20242;-68
2023/09/21 13:55:43;;;;;;;0.95;0.60;;;;;;;;;;20788905;28;20675;-69
2023/09/21 14:05:45;;;;;;;1.25;0.55;;;;;;;;;;20780085;28;20305;-69
2023/09/21 14:15:47;;;;;;;1.42;0.75;;;;;;;;;;20796070;28;20227;-68
2023/09/21 14:25:49;;;;;;;1.13;0.40;;;;;;;;;;20795460;28;20216;-69
2023/09/21 14:35:50;;;;;;;1.95;0.47;;;;;;;;;;20792463;28;20214;-67
2023/09/21 14:45:52;;;;;;;1.15;0.40;;;;;;;;;;20809659;23;20264;-65
2023/09/21 14:55:55;;;;;;;1.73;0.50;;;;;;;;;;20778473;28;20282;-65
2023/09/21 15:05:57;;;;;;;1.13;0.55;;;;;;;;;;20735348;28;20604;-65
2023/09/21 15:16:00;;;;;;;0.65;0.40;;;;;;;;;;20792700;28;20221;-65
2023/09/21 15:26:05;;;;;;;0.75;0.40;;;;;;;;;;20742205;28;20662;-65
2023/09/21 15:36:10;;;;;;;3.15;0.60;;;23.60;99.90;;;;;;20727627;28;20298;-65
2023/09/21 15:46:17;;;;;;;1.40;0.52;;;;;;;;;;20715008;28;20765;-66
2023/09/21 15:56:20;;;;;;;0.90;0.50;;;;;;;;;;20733241;28;20825;-64
2023/09/21 16:06:22;;;;;;;1.50;0.60;;;;;;;;;;20766832;28;20253;-64
2023/09/21 16:16:25;;;;;;;1.45;0.40;;;;;;;;;;20695498;28;20210;-65
2023/09/21 16:26:28;;;;;;;1.70;0.50;;;;;;;;;;20704745;28;20253;-65
2023/09/21 16:36:30;;;;;;;2.30;0.60;;;;;;;;;;20784040;28;20545;-65
2023/09/21 16:46:32;;;;;;;0.57;0.40;;;;;;;;;;20771649;28;20228;-65
2023/09/21 16:56:34;;;;;;;1.73;0.60;;;;;;;;;;20750227;28;20258;-66
2023/09/21 17:06:36;;;;;;;0.90;0.50;;;;;;;;;;20774284;28;20218;-66
2023/09/21 17:16:38;;;;;;;1.33;0.52;;;;;;;;;;20741542;28;20221;-66
2023/09/21 17:26:43;;;;;;;0.68;0.40;;;;;;;;;;20711781;28;20598;-66
2023/09/21 17:36:49;;;;;;;1.90;0.68;;;;;;;;;;20790441;28;20642;-65
2023/09/21 17:46:51;;;;;;;1.45;0.70;;;;;;;;;;20761595;28;20274;-66
2023/09/21 17:56:53;;;;;;;1.33;0.60;;;;;;;;;;20776452;28;20278;-66
2023/09/21 18:06:56;;;;;;;0.30;0.20;;;;;;;;;;20774427;28;20770;-67
2023/09/21 18:17:03;;;;;;;0.82;0.30;;;;;;;;;;20744888;28;20214;-67
2023/09/21 18:27:07;;;;;;;0.45;0.30;;;;;;;;;;20742492;28;20231;-68
2023/09/21 18:58:44;;;;;;;0.28;0.20;;;;;;;;;;20915288;28;20309;-69
2023/09/21 19:08:46;;;;;;;2.25;0.40;;;;;;;;;;20906053;28;20215;-69
2023/09/21 19:18:48;;;;;;;1.97;0.27;;;;;;;;;;20935042;28;20268;-69
2023/09/21 19:28:50;;;;;;;0.13;0.13;;;;;;;;;;20934088;28;20271;-69
2023/09/21 19:38:52;;;;;;;0.80;0.40;;;;;;;;;;20907013;28;20277;-69
